sensor_id;sensor_type;location;lat;lon;timestamp;temperature;humidity
306;DHT22;137;48.578;9.180;2022-10-03T00:01:54;10.30;98.20
306;DHT22;137;48.578;9.180;2022-10-03T00:04:38;10.20;98.20
306;DHT22;137;48.578;9.180;2022-10-03T00:07:17;10.20;98.20
306;DHT22;137;48.578;9.180;2022-10-03T00:09:57;10.20;98.20
306;DHT22;137;48.578;9.180;2022-10-03T00:12:44;10.10;98.20
306;DHT22;137;48.578;9.180;2022-10-03T00:15:17;10.20;98.20
306;DHT22;137;48.578;9.180;2022-10-03T00:17:55;10.20;98.20
306;DHT22;137;48.578;9.180;2022-10-03T00:20:45;10.40;98.20
306;DHT22;137;48.578;9.180;2022-10-03T00:23:20;10.30;98.20
306;DHT22;137;48.578;9.180;2022-10-03T00:25:54;10.30;98.20
306;DHT22;137;48.578;9.180;2022-10-03T00:28:43;10.30;98.20
306;DHT22;137;48.578;9.180;2022-10-03T00:31:18;10.20;98.20
306;DHT22;137;48.578;9.180;2022-10-03T00:34:02;10.10;98.20
306;DHT22;137;48.578;9.180;2022-10-03T00:36:40;10.10;98.20
306;DHT22;137;48.578;9.180;2022-10-03T00:42:33;10.00;98.20
306;DHT22;137;48.578;9.180;2022-10-03T00:51:23;9.90;98.20
306;DHT22;137;48.578;9.180;2022-10-03T00:54:20;9.80;98.20
306;DHT22;137;48.578;9.180;2022-10-03T00:56:59;9.80;98.20
306;DHT22;137;48.578;9.180;2022-10-03T00:59:40;9.80;98.20
306;DHT22;137;48.578;9.180;2022-10-03T01:02:23;9.80;98.20
306;DHT22;137;48.578;9.180;2022-10-03T01:04:59;9.80;98.20
306;DHT22;137;48.578;9.180;2022-10-03T01:07:46;9.60;98.20
306;DHT22;137;48.578;9.180;2022-10-03T01:10:18;9.60;98.20
306;DHT22;137;48.578;9.180;2022-10-03T01:12:54;9.50;98.20
306;DHT22;137;48.578;9.180;2022-10-03T01:15:30;9.50;98.20
306;DHT22;137;48.578;9.180;2022-10-03T01:18:20;9.40;98.20
306;DHT22;137;48.578;9.180;2022-10-03T01:20:56;9.50;98.20
306;DHT22;137;48.578;9.180;2022-10-03T01:26:48;9.50;98.20
306;DHT22;137;48.578;9.180;2022-10-03T01:29:22;9.40;98.20
306;DHT22;137;48.578;9.180;2022-10-03T01:32:11;9.30;98.20
306;DHT22;137;48.578;9.180;2022-10-03T01:34:45;9.30;98.20
306;DHT22;137;48.578;9.180;2022-10-03T01:37:22;9.20;98.20
306;DHT22;137;48.578;9.180;2022-10-03T01:39:54;9.20;98.20
306;DHT22;137;48.578;9.180;2022-10-03T01:42:33;9.20;98.20
306;DHT22;137;48.578;9.180;2022-10-03T01:45:11;9.20;98.20
306;DHT22;137;48.578;9.180;2022-10-03T01:47:46;9.30;98.20
306;DHT22;137;48.578;9.180;2022-10-03T01:50:22;9.40;98.20
306;DHT22;137;48.578;9.180;2022-10-03T01:52:56;9.60;98.20
306;DHT22;137;48.578;9.180;2022-10-03T01:55:33;9.70;98.20
306;DHT22;137;48.578;9.180;2022-10-03T01:58:06;9.80;98.20
306;DHT22;137;48.578;9.180;2022-10-03T02:00:43;10.00;98.20
306;DHT22;137;48.578;9.180;2022-10-03T02:03:19;10.00;98.20
306;DHT22;137;48.578;9.180;2022-10-03T02:05:53;10.10;98.20
306;DHT22;137;48.578;9.180;2022-10-03T02:08:32;10.20;98.20
306;DHT22;137;48.578;9.180;2022-10-03T02:11:03;10.10;98.20
306;DHT22;137;48.578;9.180;2022-10-03T02:13:41;10.10;98.20
306;DHT22;137;48.578;9.180;2022-10-03T02:16:19;10.10;98.20
306;DHT22;137;48.578;9.180;2022-10-03T02:18:53;10.10;98.20
306;DHT22;137;48.578;9.180;2022-10-03T02:21:22;10.00;98.20
306;DHT22;137;48.578;9.180;2022-10-03T02:24:00;9.90;98.20
306;DHT22;137;48.578;9.180;2022-10-03T02:26:54;9.80;98.20
306;DHT22;137;48.578;9.180;2022-10-03T02:29:46;9.70;98.20
306;DHT22;137;48.578;9.180;2022-10-03T02:42:12;9.70;98.20
306;DHT22;137;48.578;9.180;2022-10-03T02:48:22;9.70;98.20
306;DHT22;137;48.578;9.180;2022-10-03T02:54:19;9.80;98.20
306;DHT22;137;48.578;9.180;2022-10-03T02:57:09;9.90;98.20
306;DHT22;137;48.578;9.180;2022-10-03T03:00:03;9.90;98.20
306;DHT22;137;48.578;9.180;2022-10-03T03:02:59;10.00;98.20
306;DHT22;137;48.578;9.180;2022-10-03T03:05:44;10.10;98.20
306;DHT22;137;48.578;9.180;2022-10-03T03:08:35;9.90;98.20
306;DHT22;137;48.578;9.180;2022-10-03T03:11:36;9.90;98.20
306;DHT22;137;48.578;9.180;2022-10-03T03:17:14;9.80;98.20
306;DHT22;137;48.578;9.180;2022-10-03T03:19:54;9.70;98.20
306;DHT22;137;48.578;9.180;2022-10-03T03:22:45;9.70;98.20
306;DHT22;137;48.578;9.180;2022-10-03T03:25:37;9.60;98.20
306;DHT22;137;48.578;9.180;2022-10-03T03:28:24;9.60;98.20
306;DHT22;137;48.578;9.180;2022-10-03T03:31:02;9.60;98.20
306;DHT22;137;48.578;9.180;2022-10-03T03:33:40;9.60;98.20
306;DHT22;137;48.578;9.180;2022-10-03T03:36:14;9.60;98.20
306;DHT22;137;48.578;9.180;2022-10-03T03:38:50;9.50;98.20
306;DHT22;137;48.578;9.180;2022-10-03T03:41:42;9.50;98.20
306;DHT22;137;48.578;9.180;2022-10-03T03:44:45;9.40;98.20
306;DHT22;137;48.578;9.180;2022-10-03T03:47:28;9.30;98.20
306;DHT22;137;48.578;9.180;2022-10-03T03:50:12;9.20;98.20
306;DHT22;137;48.578;9.180;2022-10-03T03:53:02;9.10;98.20
306;DHT22;137;48.578;9.180;2022-10-03T03:55:41;9.10;98.20
306;DHT22;137;48.578;9.180;2022-10-03T03:58:19;9.10;98.20
306;DHT22;137;48.578;9.180;2022-10-03T04:01:01;9.10;98.20
306;DHT22;137;48.578;9.180;2022-10-03T04:03:46;9.00;98.20
306;DHT22;137;48.578;9.180;2022-10-03T04:06:25;9.00;98.20
306;DHT22;137;48.578;9.180;2022-10-03T04:09:18;9.00;98.20
306;DHT22;137;48.578;9.180;2022-10-03T04:11:54;9.00;98.20
306;DHT22;137;48.578;9.180;2022-10-03T04:14:44;8.80;98.20
306;DHT22;137;48.578;9.180;2022-10-03T04:20:51;9.00;98.20
306;DHT22;137;48.578;9.180;2022-10-03T04:23:36;9.10;98.20
306;DHT22;137;48.578;9.180;2022-10-03T04:26:20;9.30;98.20
306;DHT22;137;48.578;9.180;2022-10-03T04:29:13;9.40;98.20
306;DHT22;137;48.578;9.180;2022-10-03T04:31:52;9.50;98.20
306;DHT22;137;48.578;9.180;2022-10-03T04:34:33;9.50;98.20
306;DHT22;137;48.578;9.180;2022-10-03T04:37:16;9.60;98.20
306;DHT22;137;48.578;9.180;2022-10-03T04:39:52;9.60;98.20
306;DHT22;137;48.578;9.180;2022-10-03T04:42:35;9.60;98.20
306;DHT22;137;48.578;9.180;2022-10-03T04:45:12;9.80;98.20
306;DHT22;137;48.578;9.180;2022-10-03T04:47:47;9.90;98.20
306;DHT22;137;48.578;9.180;2022-10-03T04:50:30;9.90;98.20
306;DHT22;137;48.578;9.180;2022-10-03T04:53:18;10.00;98.20
306;DHT22;137;48.578;9.180;2022-10-03T04:55:47;10.10;98.20
306;DHT22;137;48.578;9.180;2022-10-03T04:58:25;10.10;98.20
306;DHT22;137;48.578;9.180;2022-10-03T05:01:02;10.10;98.20
306;DHT22;137;48.578;9.180;2022-10-03T05:03:40;10.10;98.20
306;DHT22;137;48.578;9.180;2022-10-03T05:06:21;10.10;98.20
306;DHT22;137;48.578;9.180;2022-10-03T05:08:56;10.20;98.20
306;DHT22;137;48.578;9.180;2022-10-03T05:11:36;10.20;98.20
306;DHT22;137;48.578;9.180;2022-10-03T05:14:11;10.30;98.20
306;DHT22;137;48.578;9.180;2022-10-03T05:16:46;10.40;98.20
306;DHT22;137;48.578;9.180;2022-10-03T05:19:45;10.40;98.20
306;DHT22;137;48.578;9.180;2022-10-03T05:22:35;10.40;98.20
306;DHT22;137;48.578;9.180;2022-10-03T05:25:17;10.40;98.20
306;DHT22;137;48.578;9.180;2022-10-03T05:27:50;10.50;98.20
306;DHT22;137;48.578;9.180;2022-10-03T05:30:28;10.50;98.20
306;DHT22;137;48.578;9.180;2022-10-03T05:33:04;10.50;98.20
306;DHT22;137;48.578;9.180;2022-10-03T05:35:44;10.50;98.20
306;DHT22;137;48.578;9.180;2022-10-03T05:38:26;10.50;98.20
306;DHT22;137;48.578;9.180;2022-10-03T05:41:06;10.50;98.20
306;DHT22;137;48.578;9.180;2022-10-03T05:43:45;10.60;98.20
306;DHT22;137;48.578;9.180;2022-10-03T05:46:20;10.60;98.20
306;DHT22;137;48.578;9.180;2022-10-03T05:48:50;10.50;98.20
306;DHT22;137;48.578;9.180;2022-10-03T05:51:42;10.60;98.20
306;DHT22;137;48.578;9.180;2022-10-03T06:00:36;10.70;98.20
306;DHT22;137;48.578;9.180;2022-10-03T06:03:38;10.60;98.20
306;DHT22;137;48.578;9.180;2022-10-03T06:06:17;10.60;98.20
306;DHT22;137;48.578;9.180;2022-10-03T06:08:54;10.60;98.20
306;DHT22;137;48.578;9.180;2022-10-03T06:14:47;10.60;98.20
306;DHT22;137;48.578;9.180;2022-10-03T06:23:57;10.60;98.20
306;DHT22;137;48.578;9.180;2022-10-03T06:32:52;10.70;98.20
306;DHT22;137;48.578;9.180;2022-10-03T06:35:58;10.80;98.20
306;DHT22;137;48.578;9.180;2022-10-03T06:42:06;10.90;98.20
306;DHT22;137;48.578;9.180;2022-10-03T06:44:54;11.00;98.20
306;DHT22;137;48.578;9.180;2022-10-03T06:47:43;11.20;98.20
306;DHT22;137;48.578;9.180;2022-10-03T06:50:38;11.30;98.20
306;DHT22;137;48.578;9.180;2022-10-03T06:53:32;11.40;98.20
306;DHT22;137;48.578;9.180;2022-10-03T06:59:16;11.70;98.20
306;DHT22;137;48.578;9.180;2022-10-03T07:02:19;11.90;98.20
306;DHT22;137;48.578;9.180;2022-10-03T07:10:59;12.10;98.20
306;DHT22;137;48.578;9.180;2022-10-03T07:17:04;12.10;98.20
306;DHT22;137;48.578;9.180;2022-10-03T07:23:33;12.40;98.20
306;DHT22;137;48.578;9.180;2022-10-03T07:26:37;12.50;98.20
306;DHT22;137;48.578;9.180;2022-10-03T07:29:16;12.80;98.20
306;DHT22;137;48.578;9.180;2022-10-03T07:35:09;13.10;98.20
306;DHT22;137;48.578;9.180;2022-10-03T07:37:52;13.30;98.20
306;DHT22;137;48.578;9.180;2022-10-03T07:41:16;13.40;98.20
306;DHT22;137;48.578;9.180;2022-10-03T07:44:17;13.50;98.20
306;DHT22;137;48.578;9.180;2022-10-03T07:47:17;13.50;98.20
306;DHT22;137;48.578;9.180;2022-10-03T07:53:02;13.70;98.20
306;DHT22;137;48.578;9.180;2022-10-03T07:58:54;14.00;98.20
306;DHT22;137;48.578;9.180;2022-10-03T08:01:39;14.10;98.20
306;DHT22;137;48.578;9.180;2022-10-03T08:07:41;14.50;98.20
306;DHT22;137;48.578;9.180;2022-10-03T08:10:38;14.70;98.20
306;DHT22;137;48.578;9.180;2022-10-03T08:13:26;14.70;98.20
306;DHT22;137;48.578;9.180;2022-10-03T08:16:13;14.60;98.20
306;DHT22;137;48.578;9.180;2022-10-03T08:18:58;14.50;98.20
306;DHT22;137;48.578;9.180;2022-10-03T08:21:41;14.50;98.20
306;DHT22;137;48.578;9.180;2022-10-03T08:24:44;14.10;98.20
306;DHT22;137;48.578;9.180;2022-10-03T08:27:31;13.80;98.20
306;DHT22;137;48.578;9.180;2022-10-03T08:30:19;13.70;98.20
306;DHT22;137;48.578;9.180;2022-10-03T08:32:57;13.40;98.20
306;DHT22;137;48.578;9.180;2022-10-03T08:35:57;13.30;98.20
306;DHT22;137;48.578;9.180;2022-10-03T08:38:45;13.30;98.20
306;DHT22;137;48.578;9.180;2022-10-03T08:41:57;13.50;98.20
306;DHT22;137;48.578;9.180;2022-10-03T08:44:51;13.70;98.20
306;DHT22;137;48.578;9.180;2022-10-03T08:50:40;13.90;98.20
306;DHT22;137;48.578;9.180;2022-10-03T08:56:23;13.80;98.20
306;DHT22;137;48.578;9.180;2022-10-03T08:59:15;13.70;98.20
306;DHT22;137;48.578;9.180;2022-10-03T09:02:16;13.30;98.20
306;DHT22;137;48.578;9.180;2022-10-03T09:05:04;13.40;98.20
306;DHT22;137;48.578;9.180;2022-10-03T09:08:13;13.50;98.20
306;DHT22;137;48.578;9.180;2022-10-03T09:20:34;13.40;98.20
306;DHT22;137;48.578;9.180;2022-10-03T09:23:34;13.60;98.20
306;DHT22;137;48.578;9.180;2022-10-03T09:26:23;13.80;98.20
306;DHT22;137;48.578;9.180;2022-10-03T09:29:17;13.90;98.20
306;DHT22;137;48.578;9.180;2022-10-03T09:32:21;14.10;98.20
306;DHT22;137;48.578;9.180;2022-10-03T09:47:45;14.80;98.20
306;DHT22;137;48.578;9.180;2022-10-03T09:50:56;15.00;98.20
306;DHT22;137;48.578;9.180;2022-10-03T10:05:48;15.80;98.20
306;DHT22;137;48.578;9.180;2022-10-03T10:14:51;15.70;98.20
306;DHT22;137;48.578;9.180;2022-10-03T10:17:49;16.00;98.20
306;DHT22;137;48.578;9.180;2022-10-03T10:20:38;16.10;98.20
306;DHT22;137;48.578;9.180;2022-10-03T10:23:25;16.00;98.20
306;DHT22;137;48.578;9.180;2022-10-03T10:29:16;16.00;98.20
306;DHT22;137;48.578;9.180;2022-10-03T10:35:27;16.60;98.20
306;DHT22;137;48.578;9.180;2022-10-03T10:38:20;16.70;98.20
306;DHT22;137;48.578;9.180;2022-10-03T10:41:31;16.90;98.20
306;DHT22;137;48.578;9.180;2022-10-03T10:54:08;17.00;98.20
306;DHT22;137;48.578;9.180;2022-10-03T10:57:04;17.70;98.20
306;DHT22;137;48.578;9.180;2022-10-03T11:00:02;18.00;98.20
306;DHT22;137;48.578;9.180;2022-10-03T11:03:02;18.10;98.20
306;DHT22;137;48.578;9.180;2022-10-03T11:12:31;18.70;98.20
306;DHT22;137;48.578;9.180;2022-10-03T11:25:23;19.50;98.20
306;DHT22;137;48.578;9.180;2022-10-03T11:34:32;19.50;98.20
306;DHT22;137;48.578;9.180;2022-10-03T11:37:32;19.30;98.20
306;DHT22;137;48.578;9.180;2022-10-03T11:40:17;18.70;98.20
306;DHT22;137;48.578;9.180;2022-10-03T11:42:54;17.90;98.20
306;DHT22;137;48.578;9.180;2022-10-03T11:45:29;17.90;98.20
306;DHT22;137;48.578;9.180;2022-10-03T11:48:21;17.90;98.20
306;DHT22;137;48.578;9.180;2022-10-03T11:50:52;17.80;98.20
306;DHT22;137;48.578;9.180;2022-10-03T11:53:33;17.90;98.20
306;DHT22;137;48.578;9.180;2022-10-03T11:59:15;18.00;98.20
306;DHT22;137;48.578;9.180;2022-10-03T12:02:00;18.00;98.20
306;DHT22;137;48.578;9.180;2022-10-03T12:04:37;17.80;98.20
306;DHT22;137;48.578;9.180;2022-10-03T12:07:14;17.80;98.20
306;DHT22;137;48.578;9.180;2022-10-03T12:10:10;17.80;98.20
306;DHT22;137;48.578;9.180;2022-10-03T12:12:42;17.90;98.20
306;DHT22;137;48.578;9.180;2022-10-03T12:15:30;17.90;98.20
306;DHT22;137;48.578;9.180;2022-10-03T12:18:05;18.20;98.20
306;DHT22;137;48.578;9.180;2022-10-03T12:20:48;18.20;98.20
306;DHT22;137;48.578;9.180;2022-10-03T12:23:29;17.80;98.20
306;DHT22;137;48.578;9.180;2022-10-03T12:26:02;17.50;98.20
306;DHT22;137;48.578;9.180;2022-10-03T12:28:35;17.40;98.20
306;DHT22;137;48.578;9.180;2022-10-03T12:31:09;17.40;98.20
306;DHT22;137;48.578;9.180;2022-10-03T12:33:49;17.60;98.20
306;DHT22;137;48.578;9.180;2022-10-03T12:36:24;17.70;98.20
306;DHT22;137;48.578;9.180;2022-10-03T12:39:08;17.70;98.20
306;DHT22;137;48.578;9.180;2022-10-03T12:41:56;17.70;98.20
306;DHT22;137;48.578;9.180;2022-10-03T12:44:39;17.60;98.20
306;DHT22;137;48.578;9.180;2022-10-03T12:47:23;17.80;98.20
306;DHT22;137;48.578;9.180;2022-10-03T12:49:56;18.30;98.20
306;DHT22;137;48.578;9.180;2022-10-03T12:52:28;18.90;98.20
306;DHT22;137;48.578;9.180;2022-10-03T12:55:16;19.00;98.20
306;DHT22;137;48.578;9.180;2022-10-03T12:58:01;19.00;98.20
306;DHT22;137;48.578;9.180;2022-10-03T13:00:33;18.90;98.20
306;DHT22;137;48.578;9.180;2022-10-03T13:03:14;18.50;98.20
306;DHT22;137;48.578;9.180;2022-10-03T13:09:04;17.50;98.20
306;DHT22;137;48.578;9.180;2022-10-03T13:11:41;17.10;98.20
306;DHT22;137;48.578;9.180;2022-10-03T13:14:22;17.00;98.20
306;DHT22;137;48.578;9.180;2022-10-03T13:16:59;17.20;98.20
306;DHT22;137;48.578;9.180;2022-10-03T13:19:32;17.40;98.20
306;DHT22;137;48.578;9.180;2022-10-03T13:22:16;17.50;98.20
306;DHT22;137;48.578;9.180;2022-10-03T13:24:54;17.90;98.20
306;DHT22;137;48.578;9.180;2022-10-03T13:27:33;18.30;98.20
306;DHT22;137;48.578;9.180;2022-10-03T13:30:05;18.70;98.20
306;DHT22;137;48.578;9.180;2022-10-03T13:32:41;18.90;98.20
306;DHT22;137;48.578;9.180;2022-10-03T13:35:21;18.70;98.20
306;DHT22;137;48.578;9.180;2022-10-03T13:41:23;18.70;98.20
306;DHT22;137;48.578;9.180;2022-10-03T13:43:57;18.20;98.20
306;DHT22;137;48.578;9.180;2022-10-03T13:46:28;18.10;98.20
306;DHT22;137;48.578;9.180;2022-10-03T13:49:01;18.30;98.20
306;DHT22;137;48.578;9.180;2022-10-03T13:51:43;18.20;98.20
306;DHT22;137;48.578;9.180;2022-10-03T13:54:15;17.70;98.20
306;DHT22;137;48.578;9.180;2022-10-03T13:57:02;17.30;98.20
306;DHT22;137;48.578;9.180;2022-10-03T14:02:47;16.80;98.20
306;DHT22;137;48.578;9.180;2022-10-03T14:08:47;17.00;98.20
306;DHT22;137;48.578;9.180;2022-10-03T14:11:24;17.10;98.20
306;DHT22;137;48.578;9.180;2022-10-03T14:17:03;17.00;98.20
306;DHT22;137;48.578;9.180;2022-10-03T14:19:50;17.20;98.20
306;DHT22;137;48.578;9.180;2022-10-03T14:22:29;17.40;98.20
306;DHT22;137;48.578;9.180;2022-10-03T14:25:16;17.40;98.20
306;DHT22;137;48.578;9.180;2022-10-03T14:27:55;17.60;98.20
306;DHT22;137;48.578;9.180;2022-10-03T14:30:29;17.60;98.20
306;DHT22;137;48.578;9.180;2022-10-03T14:33:09;17.60;98.20
306;DHT22;137;48.578;9.180;2022-10-03T14:35:50;18.10;98.20
306;DHT22;137;48.578;9.180;2022-10-03T14:38:29;18.50;98.20
306;DHT22;137;48.578;9.180;2022-10-03T14:41:16;18.30;98.20
306;DHT22;137;48.578;9.180;2022-10-03T14:43:49;17.90;98.20
306;DHT22;137;48.578;9.180;2022-10-03T14:46:18;17.80;98.20
306;DHT22;137;48.578;9.180;2022-10-03T14:48:50;18.00;98.20
306;DHT22;137;48.578;9.180;2022-10-03T14:51:20;17.90;98.20
306;DHT22;137;48.578;9.180;2022-10-03T14:53:52;17.90;98.20
306;DHT22;137;48.578;9.180;2022-10-03T14:56:20;18.00;98.20
306;DHT22;137;48.578;9.180;2022-10-03T14:58:51;17.80;98.20
306;DHT22;137;48.578;9.180;2022-10-03T15:01:20;16.90;98.20
306;DHT22;137;48.578;9.180;2022-10-03T15:04:07;16.60;98.20
306;DHT22;137;48.578;9.180;2022-10-03T15:06:50;16.90;98.20
306;DHT22;137;48.578;9.180;2022-10-03T15:09:32;16.90;98.20
306;DHT22;137;48.578;9.180;2022-10-03T15:12:11;17.10;98.20
306;DHT22;137;48.578;9.180;2022-10-03T15:14:42;17.00;98.20
306;DHT22;137;48.578;9.180;2022-10-03T15:17:18;16.80;98.20
306;DHT22;137;48.578;9.180;2022-10-03T15:19:50;16.60;98.20
306;DHT22;137;48.578;9.180;2022-10-03T15:22:30;16.70;98.20
306;DHT22;137;48.578;9.180;2022-10-03T15:25:03;16.60;98.20
306;DHT22;137;48.578;9.180;2022-10-03T15:27:31;16.70;98.20
306;DHT22;137;48.578;9.180;2022-10-03T15:30:01;16.60;98.20
306;DHT22;137;48.578;9.180;2022-10-03T15:32:33;16.70;98.20
306;DHT22;137;48.578;9.180;2022-10-03T15:35:03;16.70;98.20
306;DHT22;137;48.578;9.180;2022-10-03T15:37:32;16.60;98.20
306;DHT22;137;48.578;9.180;2022-10-03T15:40:06;16.60;98.20
306;DHT22;137;48.578;9.180;2022-10-03T15:42:44;16.60;98.20
306;DHT22;137;48.578;9.180;2022-10-03T15:45:18;16.50;98.20
306;DHT22;137;48.578;9.180;2022-10-03T15:47:46;16.50;98.20
306;DHT22;137;48.578;9.180;2022-10-03T15:50:20;16.50;98.20
306;DHT22;137;48.578;9.180;2022-10-03T15:52:50;16.40;98.20
306;DHT22;137;48.578;9.180;2022-10-03T15:55:22;16.30;98.20
306;DHT22;137;48.578;9.180;2022-10-03T15:57:57;16.10;98.20
306;DHT22;137;48.578;9.180;2022-10-03T16:00:27;16.10;98.20
306;DHT22;137;48.578;9.180;2022-10-03T16:03:03;16.10;98.20
306;DHT22;137;48.578;9.180;2022-10-03T16:05:35;16.00;98.20
306;DHT22;137;48.578;9.180;2022-10-03T16:08:07;15.90;98.20
306;DHT22;137;48.578;9.180;2022-10-03T16:10:38;15.80;98.20
306;DHT22;137;48.578;9.180;2022-10-03T16:13:20;15.60;98.20
306;DHT22;137;48.578;9.180;2022-10-03T16:16:08;15.50;98.20
306;DHT22;137;48.578;9.180;2022-10-03T16:18:56;15.40;98.20
306;DHT22;137;48.578;9.180;2022-10-03T16:21:42;15.40;98.20
306;DHT22;137;48.578;9.180;2022-10-03T16:24:25;15.30;98.20
306;DHT22;137;48.578;9.180;2022-10-03T16:26:57;15.10;98.20
306;DHT22;137;48.578;9.180;2022-10-03T16:29:30;15.10;98.20
306;DHT22;137;48.578;9.180;2022-10-03T16:32:02;15.10;98.20
306;DHT22;137;48.578;9.180;2022-10-03T16:34:31;15.00;98.20
306;DHT22;137;48.578;9.180;2022-10-03T16:37:01;14.90;98.20
306;DHT22;137;48.578;9.180;2022-10-03T16:39:33;14.80;98.20
306;DHT22;137;48.578;9.180;2022-10-03T16:42:09;14.60;98.20
306;DHT22;137;48.578;9.180;2022-10-03T16:44:39;14.50;98.20
306;DHT22;137;48.578;9.180;2022-10-03T16:47:14;14.40;98.20
306;DHT22;137;48.578;9.180;2022-10-03T16:49:45;14.30;98.20
306;DHT22;137;48.578;9.180;2022-10-03T16:52:35;14.20;98.20
306;DHT22;137;48.578;9.180;2022-10-03T16:55:06;14.10;98.20
306;DHT22;137;48.578;9.180;2022-10-03T16:57:41;14.00;98.20
306;DHT22;137;48.578;9.180;2022-10-03T17:00:16;13.90;98.20
306;DHT22;137;48.578;9.180;2022-10-03T17:02:44;13.90;98.20
306;DHT22;137;48.578;9.180;2022-10-03T17:05:12;13.80;98.20
306;DHT22;137;48.578;9.180;2022-10-03T17:07:42;13.80;98.20
306;DHT22;137;48.578;9.180;2022-10-03T17:10:25;13.70;98.20
306;DHT22;137;48.578;9.180;2022-10-03T17:12:55;13.60;98.20
306;DHT22;137;48.578;9.180;2022-10-03T17:15:27;13.50;98.20
306;DHT22;137;48.578;9.180;2022-10-03T17:17:57;13.50;98.20
306;DHT22;137;48.578;9.180;2022-10-03T17:20:37;13.40;98.20
306;DHT22;137;48.578;9.180;2022-10-03T17:23:10;13.30;98.20
306;DHT22;137;48.578;9.180;2022-10-03T17:25:48;13.10;98.20
306;DHT22;137;48.578;9.180;2022-10-03T17:28:28;13.00;98.20
306;DHT22;137;48.578;9.180;2022-10-03T17:30:59;12.90;98.20
306;DHT22;137;48.578;9.180;2022-10-03T17:33:33;12.80;98.20
306;DHT22;137;48.578;9.180;2022-10-03T17:36:17;12.70;98.20
306;DHT22;137;48.578;9.180;2022-10-03T17:38:54;12.60;98.20
306;DHT22;137;48.578;9.180;2022-10-03T17:41:32;12.50;98.20
306;DHT22;137;48.578;9.180;2022-10-03T17:44:13;12.40;98.20
306;DHT22;137;48.578;9.180;2022-10-03T17:46:49;12.30;98.20
306;DHT22;137;48.578;9.180;2022-10-03T17:49:27;12.30;98.20
306;DHT22;137;48.578;9.180;2022-10-03T17:52:00;12.20;98.20
306;DHT22;137;48.578;9.180;2022-10-03T17:54:31;12.10;98.20
306;DHT22;137;48.578;9.180;2022-10-03T17:57:03;12.20;98.20
306;DHT22;137;48.578;9.180;2022-10-03T17:59:34;12.10;98.20
306;DHT22;137;48.578;9.180;2022-10-03T18:02:15;12.00;98.20
306;DHT22;137;48.578;9.180;2022-10-03T18:04:47;11.90;98.20
306;DHT22;137;48.578;9.180;2022-10-03T18:07:20;11.90;98.20
306;DHT22;137;48.578;9.180;2022-10-03T18:09:51;11.80;98.20
306;DHT22;137;48.578;9.180;2022-10-03T18:12:24;11.80;98.20
306;DHT22;137;48.578;9.180;2022-10-03T18:15:12;11.80;98.20
306;DHT22;137;48.578;9.180;2022-10-03T18:17:57;11.70;98.20
306;DHT22;137;48.578;9.180;2022-10-03T18:20:39;11.60;98.20
306;DHT22;137;48.578;9.180;2022-10-03T18:23:11;11.50;98.20
306;DHT22;137;48.578;9.180;2022-10-03T18:25:51;11.40;98.20
306;DHT22;137;48.578;9.180;2022-10-03T18:28:28;11.30;98.20
306;DHT22;137;48.578;9.180;2022-10-03T18:30:59;11.30;98.20
306;DHT22;137;48.578;9.180;2022-10-03T18:33:31;11.20;98.20
306;DHT22;137;48.578;9.180;2022-10-03T18:36:06;11.10;98.20
306;DHT22;137;48.578;9.180;2022-10-03T18:38:34;11.10;98.20
306;DHT22;137;48.578;9.180;2022-10-03T18:41:04;11.00;98.20
306;DHT22;137;48.578;9.180;2022-10-03T18:43:34;11.00;98.20
306;DHT22;137;48.578;9.180;2022-10-03T18:46:13;10.90;98.20
306;DHT22;137;48.578;9.180;2022-10-03T18:48:47;10.90;98.20
306;DHT22;137;48.578;9.180;2022-10-03T18:51:23;10.80;98.20
306;DHT22;137;48.578;9.180;2022-10-03T18:53:57;10.80;98.20
306;DHT22;137;48.578;9.180;2022-10-03T18:56:27;10.70;98.20
306;DHT22;137;48.578;9.180;2022-10-03T18:59:06;10.70;98.20
306;DHT22;137;48.578;9.180;2022-10-03T19:01:46;10.70;98.20
306;DHT22;137;48.578;9.180;2022-10-03T19:04:21;10.70;98.20
306;DHT22;137;48.578;9.180;2022-10-03T19:06:51;10.80;98.20
306;DHT22;137;48.578;9.180;2022-10-03T19:09:23;10.80;98.20
306;DHT22;137;48.578;9.180;2022-10-03T19:11:55;10.80;98.20
306;DHT22;137;48.578;9.180;2022-10-03T19:14:27;10.70;98.20
306;DHT22;137;48.578;9.180;2022-10-03T19:17:15;10.60;98.20
306;DHT22;137;48.578;9.180;2022-10-03T19:19:49;10.50;98.20
306;DHT22;137;48.578;9.180;2022-10-03T19:22:22;10.40;98.20
306;DHT22;137;48.578;9.180;2022-10-03T19:24:51;10.50;98.20
306;DHT22;137;48.578;9.180;2022-10-03T19:27:21;10.40;98.20
306;DHT22;137;48.578;9.180;2022-10-03T19:29:52;10.30;98.20
306;DHT22;137;48.578;9.180;2022-10-03T19:32:26;10.20;98.20
306;DHT22;137;48.578;9.180;2022-10-03T19:34:58;10.10;98.20
306;DHT22;137;48.578;9.180;2022-10-03T19:37:38;10.10;98.20
306;DHT22;137;48.578;9.180;2022-10-03T19:40:13;10.00;98.20
306;DHT22;137;48.578;9.180;2022-10-03T19:42:45;10.00;98.20
306;DHT22;137;48.578;9.180;2022-10-03T19:45:15;10.10;98.20
306;DHT22;137;48.578;9.180;2022-10-03T19:47:50;10.10;98.20
306;DHT22;137;48.578;9.180;2022-10-03T19:50:20;10.10;98.20
306;DHT22;137;48.578;9.180;2022-10-03T19:52:51;10.00;98.20
306;DHT22;137;48.578;9.180;2022-10-03T19:55:20;9.80;98.20
306;DHT22;137;48.578;9.180;2022-10-03T19:57:52;9.80;98.20
306;DHT22;137;48.578;9.180;2022-10-03T20:00:26;9.70;98.20
306;DHT22;137;48.578;9.180;2022-10-03T20:02:57;9.60;98.20
306;DHT22;137;48.578;9.180;2022-10-03T20:05:35;9.60;98.20
306;DHT22;137;48.578;9.180;2022-10-03T20:08:15;9.50;98.20
306;DHT22;137;48.578;9.180;2022-10-03T20:10:58;9.60;98.20
306;DHT22;137;48.578;9.180;2022-10-03T20:13:28;9.50;98.20
306;DHT22;137;48.578;9.180;2022-10-03T20:15:56;9.50;98.20
306;DHT22;137;48.578;9.180;2022-10-03T20:18:25;9.50;98.20
306;DHT22;137;48.578;9.180;2022-10-03T20:20:56;9.50;98.20
306;DHT22;137;48.578;9.180;2022-10-03T20:23:26;9.40;98.20
306;DHT22;137;48.578;9.180;2022-10-03T20:25:57;9.40;98.20
306;DHT22;137;48.578;9.180;2022-10-03T20:28:59;9.40;98.20
306;DHT22;137;48.578;9.180;2022-10-03T20:31:29;9.30;98.20
306;DHT22;137;48.578;9.180;2022-10-03T20:33:59;9.30;98.20
306;DHT22;137;48.578;9.180;2022-10-03T20:36:28;9.30;98.20
306;DHT22;137;48.578;9.180;2022-10-03T20:39:11;9.20;98.20
306;DHT22;137;48.578;9.180;2022-10-03T20:41:49;9.20;98.20
306;DHT22;137;48.578;9.180;2022-10-03T20:44:28;9.20;98.20
306;DHT22;137;48.578;9.180;2022-10-03T20:47:01;9.10;98.20
306;DHT22;137;48.578;9.180;2022-10-03T20:49:33;9.10;98.20
306;DHT22;137;48.578;9.180;2022-10-03T20:52:01;9.10;98.20
306;DHT22;137;48.578;9.180;2022-10-03T20:54:33;9.00;98.20
306;DHT22;137;48.578;9.180;2022-10-03T20:57:04;9.10;98.20
306;DHT22;137;48.578;9.180;2022-10-03T20:59:42;9.10;98.20
306;DHT22;137;48.578;9.180;2022-10-03T21:02:23;9.10;98.20
306;DHT22;137;48.578;9.180;2022-10-03T21:04:53;9.00;98.20
306;DHT22;137;48.578;9.180;2022-10-03T21:07:32;9.00;98.20
306;DHT22;137;48.578;9.180;2022-10-03T21:10:08;9.00;98.20
306;DHT22;137;48.578;9.180;2022-10-03T21:12:42;9.00;98.20
306;DHT22;137;48.578;9.180;2022-10-03T21:15:15;9.00;98.20
306;DHT22;137;48.578;9.180;2022-10-03T21:17:46;8.90;98.20
306;DHT22;137;48.578;9.180;2022-10-03T21:20:17;8.90;98.20